createdAt,value
2023-03-20T00:00:33.132Z,10.44
2023-03-20T00:04:36.505Z,10.45
2023-03-20T00:08:40.371Z,10.43
2023-03-20T00:12:44.778Z,10.38
2023-03-20T00:16:51.177Z,10.31
2023-03-20T00:20:54.618Z,10.18
2023-03-20T00:24:57.558Z,10.05
2023-03-20T00:29:00.777Z,9.99
2023-03-20T00:33:05.327Z,9.92
2023-03-20T00:37:11.429Z,9.85
2023-03-20T00:41:26.548Z,9.83
2023-03-20T00:45:31.434Z,9.78
2023-03-20T00:49:40.411Z,9.77
2023-03-20T00:53:44.680Z,9.75
2023-03-20T00:57:50.374Z,9.71
2023-03-20T01:01:58.935Z,9.68
2023-03-20T01:06:13.910Z,9.67
2023-03-20T01:10:17.889Z,9.69
2023-03-20T01:14:21.213Z,9.67
2023-03-20T01:18:26.676Z,9.70
2023-03-20T01:22:32.972Z,9.73
2023-03-20T01:26:42.255Z,9.74
2023-03-20T01:30:46.423Z,9.77
2023-03-20T01:34:53.111Z,9.78
2023-03-20T01:39:02.294Z,9.73
2023-03-20T01:43:12.481Z,9.70
2023-03-20T01:47:18.061Z,9.67
2023-03-20T01:51:29.596Z,9.69
2023-03-20T01:55:43.159Z,9.71
2023-03-20T01:59:51.238Z,9.66
2023-03-20T02:03:56.178Z,9.67
2023-03-20T02:08:19.015Z,9.62
2023-03-20T02:12:26.417Z,9.65
2023-03-20T02:16:29.965Z,9.57
2023-03-20T02:20:58.010Z,9.56
2023-03-20T02:25:38.286Z,9.53
2023-03-20T02:30:06.252Z,9.52
2023-03-20T02:34:43.380Z,9.49
2023-03-20T02:39:18.485Z,9.41
2023-03-20T02:43:26.810Z,9.39
2023-03-20T02:47:33.976Z,9.38
2023-03-20T02:51:56.305Z,9.42
2023-03-20T02:56:10.227Z,9.41
2023-03-20T03:00:16.794Z,9.36
2023-03-20T03:04:24.848Z,9.30
2023-03-20T03:08:32.478Z,9.34
2023-03-20T03:12:41.396Z,9.32
2023-03-20T03:16:47.720Z,9.32
2023-03-20T03:20:56.877Z,9.25
2023-03-20T03:25:00.325Z,9.18
2023-03-20T03:29:13.145Z,9.20
2023-03-20T03:33:23.003Z,9.14
2023-03-20T03:37:38.029Z,9.18
2023-03-20T03:41:44.426Z,9.19
2023-03-20T03:45:56.097Z,9.24
2023-03-20T03:50:03.177Z,9.22
2023-03-20T03:54:10.199Z,9.20
2023-03-20T03:58:20.430Z,9.16
2023-03-20T04:02:27.932Z,9.18
2023-03-20T04:06:33.493Z,9.17
2023-03-20T04:10:37.836Z,9.15
2023-03-20T04:14:44.191Z,9.13
2023-03-20T04:18:55.645Z,9.07
2023-03-20T04:22:58.793Z,9.07
2023-03-20T04:27:02.730Z,9.07
2023-03-20T04:31:07.005Z,9.03
2023-03-20T04:35:43.183Z,9.03
2023-03-20T04:39:51.947Z,9.02
2023-03-20T04:43:55.154Z,9.01
2023-03-20T04:47:59.966Z,8.98
2023-03-20T04:52:07.907Z,8.94
2023-03-20T04:56:17.598Z,8.89
2023-03-20T05:00:23.174Z,8.89
2023-03-20T05:04:27.943Z,8.88
2023-03-20T05:08:33.696Z,8.87
2023-03-20T05:12:37.599Z,8.80
2023-03-20T05:17:01.381Z,8.78
2023-03-20T05:21:20.826Z,8.78
2023-03-20T05:25:55.377Z,8.75
2023-03-20T05:30:32.208Z,8.68
2023-03-20T05:34:53.855Z,8.69
2023-03-20T05:39:20.089Z,8.62
2023-03-20T05:43:43.988Z,8.61
2023-03-20T05:48:06.192Z,8.57
2023-03-20T05:52:22.770Z,8.50
2023-03-20T05:56:41.443Z,8.45
2023-03-20T06:01:08.275Z,8.40
2023-03-20T06:05:29.725Z,8.39
2023-03-20T06:09:36.572Z,8.34
2023-03-20T06:13:44.740Z,8.29
2023-03-20T06:17:51.768Z,8.28
2023-03-20T06:21:55.009Z,8.27
2023-03-20T06:25:58.311Z,8.28
2023-03-20T06:30:03.264Z,8.29
2023-03-20T06:34:12.104Z,8.24
2023-03-20T06:38:20.929Z,8.29
2023-03-20T06:42:24.739Z,8.29
2023-03-20T06:46:27.741Z,8.33
2023-03-20T06:50:32.875Z,8.35
2023-03-20T06:54:36.139Z,8.34
2023-03-20T06:58:39.475Z,8.34
2023-03-20T07:02:43.287Z,8.34
2023-03-20T07:06:51.536Z,8.39
2023-03-20T07:10:55.190Z,8.41
2023-03-20T07:14:58.617Z,8.48
2023-03-20T07:19:02.648Z,8.55
2023-03-20T07:23:11.985Z,8.60
2023-03-20T07:27:14.939Z,8.60
2023-03-20T07:31:21.954Z,8.57
2023-03-20T07:35:29.666Z,8.62
2023-03-20T07:39:34.047Z,8.81
2023-03-20T07:43:56.719Z,8.82
2023-03-20T07:48:21.966Z,8.82
2023-03-20T07:52:25.635Z,8.86
2023-03-20T07:56:30.764Z,8.92
2023-03-20T08:00:33.440Z,8.89
2023-03-20T08:04:36.466Z,8.86
2023-03-20T08:08:39.514Z,8.97
2023-03-20T08:12:44.844Z,8.97
2023-03-20T08:16:50.484Z,9.00
2023-03-20T08:20:56.794Z,9.12
2023-03-20T08:24:59.516Z,9.18
2023-03-20T08:29:03.673Z,9.27
2023-03-20T08:33:07.379Z,9.32
2023-03-20T08:37:10.712Z,9.36
2023-03-20T08:41:13.460Z,9.49
2023-03-20T08:45:17.953Z,9.60
2023-03-20T08:49:20.821Z,9.69
2023-03-20T08:53:23.562Z,9.76
2023-03-20T08:57:26.408Z,9.80
2023-03-20T09:01:47.967Z,9.83
2023-03-20T09:05:52.413Z,9.90
2023-03-20T09:09:55.162Z,9.88
2023-03-20T09:13:57.882Z,9.95
2023-03-20T09:18:04.012Z,10.00
2023-03-20T09:22:07.334Z,10.08
2023-03-20T09:26:10.118Z,10.08
2023-03-20T09:30:14.428Z,10.15
2023-03-20T09:34:18.472Z,10.19
2023-03-20T09:38:21.528Z,10.25
2023-03-20T09:42:38.139Z,10.24
2023-03-20T09:46:58.467Z,10.31
2023-03-20T09:51:16.653Z,10.35
2023-03-20T09:55:24.519Z,10.38
2023-03-20T09:59:28.667Z,10.38
2023-03-20T10:03:38.426Z,10.31
2023-03-20T10:07:42.571Z,10.34
2023-03-20T10:12:04.071Z,10.50
2023-03-20T10:16:16.520Z,10.58
2023-03-20T10:20:27.433Z,10.59
2023-03-20T10:24:37.212Z,10.65
2023-03-20T10:28:48.119Z,10.61
2023-03-20T10:32:58.933Z,10.62
2023-03-20T10:37:16.724Z,10.77
2023-03-20T10:41:24.170Z,10.76
2023-03-20T10:45:42.579Z,10.76
2023-03-20T10:49:51.762Z,10.79
2023-03-20T10:53:59.287Z,10.88
2023-03-20T10:58:11.786Z,10.96
2023-03-20T11:02:15.740Z,11.10
2023-03-20T11:06:21.806Z,11.13
2023-03-20T11:10:27.946Z,11.12
2023-03-20T11:14:37.552Z,11.10
2023-03-20T11:18:42.877Z,10.93
2023-03-20T11:22:48.030Z,10.83
2023-03-20T11:26:52.805Z,10.79
2023-03-20T11:31:04.790Z,10.76
2023-03-20T11:35:19.286Z,10.73
2023-03-20T11:39:25.258Z,10.66
2023-03-20T11:43:28.872Z,10.68
2023-03-20T11:47:36.070Z,10.72
2023-03-20T11:51:39.085Z,10.55
2023-03-20T11:55:46.528Z,10.45
2023-03-20T11:59:49.249Z,10.36
2023-03-20T12:03:59.764Z,10.27
2023-03-20T12:08:07.422Z,10.19
2023-03-20T12:12:20.421Z,10.21
2023-03-20T12:16:27.591Z,10.16
2023-03-20T12:20:39.413Z,10.13
2023-03-20T12:24:46.823Z,10.23
2023-03-20T12:28:55.997Z,10.34
2023-03-20T12:33:05.226Z,10.25
2023-03-20T12:37:13.303Z,10.14
2023-03-20T12:41:21.629Z,10.11
2023-03-20T12:45:26.951Z,10.10
2023-03-20T12:49:39.592Z,10.08
2023-03-20T12:53:56.116Z,10.16
2023-03-20T12:58:07.780Z,10.25
2023-03-20T13:02:35.127Z,10.24
2023-03-20T13:06:46.952Z,10.28
2023-03-20T13:11:02.685Z,10.33
2023-03-20T13:15:20.147Z,10.32
2023-03-20T13:19:32.099Z,10.30
2023-03-20T13:23:41.175Z,10.31
2023-03-20T13:27:50.980Z,10.23
2023-03-20T13:32:04.673Z,10.18
2023-03-20T13:36:18.382Z,10.19
2023-03-20T13:40:23.564Z,10.26
2023-03-20T13:44:30.616Z,10.26
2023-03-20T13:48:36.351Z,10.27
2023-03-20T13:52:46.500Z,10.32
2023-03-20T13:56:56.052Z,10.35
2023-03-20T14:01:07.024Z,10.34
2023-03-20T14:05:15.433Z,10.25
2023-03-20T14:09:27.290Z,10.11
2023-03-20T14:13:31.947Z,10.13
2023-03-20T14:17:36.649Z,10.06
2023-03-20T14:21:39.802Z,9.95
2023-03-20T14:25:44.160Z,9.92
2023-03-20T14:29:46.895Z,9.96
2023-03-20T14:33:59.443Z,9.95
2023-03-20T14:38:24.849Z,9.83
2023-03-20T14:42:38.404Z,9.82
2023-03-20T14:46:49.230Z,9.84
2023-03-20T14:51:03.118Z,9.88
2023-03-20T14:55:30.431Z,9.90
2023-03-20T14:59:33.742Z,9.97
2023-03-20T15:03:40.962Z,9.88
2023-03-20T15:07:45.233Z,9.72
2023-03-20T15:11:48.388Z,9.59
2023-03-20T15:15:56.647Z,9.49
2023-03-20T15:20:04.427Z,9.38
2023-03-20T15:24:08.987Z,9.42
2023-03-20T15:28:18.054Z,9.46
2023-03-20T15:32:23.744Z,9.50
2023-03-20T15:36:28.714Z,9.52
2023-03-20T15:40:49.225Z,9.53
2023-03-20T15:44:55.179Z,9.50
2023-03-20T15:49:00.200Z,9.44
2023-03-20T15:53:04.087Z,9.45
2023-03-20T15:57:08.334Z,9.41
2023-03-20T16:01:18.427Z,9.42
2023-03-20T16:05:25.547Z,9.35
2023-03-20T16:09:29.080Z,9.35
2023-03-20T16:13:39.109Z,9.34
2023-03-20T16:17:42.138Z,9.36
2023-03-20T16:21:51.140Z,9.40
2023-03-20T16:25:59.042Z,9.36
2023-03-20T16:30:06.448Z,9.26
2023-03-20T16:34:15.760Z,9.17
2023-03-20T16:38:25.631Z,9.11
2023-03-20T16:42:30.541Z,9.07
2023-03-20T16:46:34.697Z,9.05
2023-03-20T16:50:39.303Z,9.05
2023-03-20T16:54:42.139Z,9.01
2023-03-20T16:58:46.746Z,8.93
2023-03-20T17:02:53.675Z,8.93
2023-03-20T17:07:00.149Z,8.96
2023-03-20T17:11:10.905Z,8.96
2023-03-20T17:15:16.631Z,8.99
2023-03-20T17:19:21.317Z,8.98
2023-03-20T17:23:24.375Z,8.98
2023-03-20T17:27:28.247Z,8.93
2023-03-20T17:31:31.737Z,8.89
2023-03-20T17:35:36.142Z,8.88
2023-03-20T17:39:38.898Z,8.90
2023-03-20T17:43:42.827Z,8.88
2023-03-20T17:47:46.173Z,8.82
2023-03-20T17:51:50.246Z,8.83
2023-03-20T17:55:53.244Z,8.85
2023-03-20T17:59:56.108Z,8.88
2023-03-20T18:04:00.841Z,8.83
2023-03-20T18:08:06.340Z,8.80
2023-03-20T18:12:12.590Z,8.81
2023-03-20T18:16:19.563Z,8.77
2023-03-20T18:20:26.808Z,8.75
2023-03-20T18:24:30.932Z,8.80
2023-03-20T18:28:33.615Z,8.82
2023-03-20T18:32:36.380Z,8.82
2023-03-20T18:36:39.138Z,8.83
2023-03-20T18:40:47.069Z,8.86
2023-03-20T18:44:49.777Z,8.82
2023-03-20T18:48:53.868Z,8.87
2023-03-20T18:52:58.806Z,8.81
2023-03-20T18:57:02.883Z,8.86
2023-03-20T19:01:06.007Z,8.92
2023-03-20T19:05:10.523Z,8.93
2023-03-20T19:09:13.417Z,8.96
2023-03-20T19:13:19.449Z,9.02
2023-03-20T19:17:22.151Z,8.98
2023-03-20T19:21:26.229Z,8.99
2023-03-20T19:25:29.729Z,9.00
2023-03-20T19:29:33.834Z,9.03
2023-03-20T19:33:36.786Z,9.05
2023-03-20T19:37:39.564Z,9.07
2023-03-20T19:41:42.295Z,9.10
2023-03-20T19:45:46.345Z,9.10
2023-03-20T19:49:49.044Z,9.11
2023-03-20T19:53:52.150Z,9.15
2023-03-20T19:57:56.502Z,9.16
2023-03-20T20:02:00.693Z,9.19
2023-03-20T20:06:04.634Z,9.20
2023-03-20T20:10:08.242Z,9.25
2023-03-20T20:14:14.525Z,9.32
2023-03-20T20:18:19.998Z,9.37
2023-03-20T20:22:26.366Z,9.40
2023-03-20T20:26:31.342Z,9.43
2023-03-20T20:30:38.803Z,9.46
2023-03-20T20:39:06.493Z,9.47
2023-03-20T20:43:10.982Z,9.52
2023-03-20T20:47:14.441Z,9.55
2023-03-20T20:51:19.046Z,9.54
2023-03-20T20:55:24.624Z,9.57
2023-03-20T20:59:28.221Z,9.58
2023-03-20T21:03:30.926Z,9.60
2023-03-20T21:07:35.711Z,9.62
2023-03-20T21:11:38.617Z,9.64
2023-03-20T21:15:42.077Z,9.69
2023-03-20T21:19:45.211Z,9.74
2023-03-20T21:23:49.816Z,9.69
2023-03-20T21:27:52.549Z,9.70
2023-03-20T21:31:55.460Z,9.72
2023-03-20T21:35:58.865Z,9.69
2023-03-20T21:40:03.226Z,9.71
2023-03-20T21:44:06.356Z,9.70
2023-03-20T21:53:11.898Z,9.71
2023-03-20T21:57:34.502Z,9.74
2023-03-20T22:01:53.279Z,9.72
2023-03-20T22:10:58.491Z,9.70
2023-03-20T22:19:45.956Z,9.74
2023-03-20T22:24:05.773Z,9.77
2023-03-20T22:28:15.604Z,9.76
2023-03-20T22:37:17.066Z,9.81
2023-03-20T22:45:11.520Z,9.79
2023-03-20T22:49:15.998Z,9.82
2023-03-20T22:53:19.505Z,9.84
2023-03-20T22:57:26.609Z,9.83
2023-03-20T23:01:37.393Z,9.84
2023-03-20T23:05:42.029Z,9.88
2023-03-20T23:09:44.716Z,9.89
2023-03-20T23:13:47.743Z,9.86
2023-03-20T23:17:50.874Z,9.90
2023-03-20T23:21:54.938Z,9.90
2023-03-20T23:26:06.345Z,9.91
2023-03-20T23:30:10.265Z,9.91
2023-03-20T23:34:14.822Z,9.95
2023-03-20T23:38:20.174Z,9.99
2023-03-20T23:42:30.264Z,10.01
2023-03-20T23:46:33.597Z,10.02
2023-03-20T23:50:49.954Z,10.00
2023-03-20T23:54:56.494Z,10.02
2023-03-20T23:59:05.513Z,9.98
